sensor_id;sensor_type;location;lat;lon;timestamp;P1;durP1;ratioP1;P2;durP2;ratioP2
61741;SDS011;47650;49.848;9.620;2022-12-07T00:01:49;19.75;;;14.90;;
61741;SDS011;47650;49.848;9.620;2022-12-07T00:04:16;21.65;;;15.30;;
61741;SDS011;47650;49.848;9.620;2022-12-07T00:06:50;19.30;;;14.18;;
61741;SDS011;47650;49.848;9.620;2022-12-07T00:09:17;20.40;;;15.48;;
61741;SDS011;47650;49.848;9.620;2022-12-07T00:11:44;22.27;;;15.80;;
61741;SDS011;47650;49.848;9.620;2022-12-07T00:14:15;18.65;;;14.25;;
61741;SDS011;47650;49.848;9.620;2022-12-07T00:16:41;18.38;;;13.18;;
61741;SDS011;47650;49.848;9.620;2022-12-07T00:19:07;17.30;;;13.02;;
61741;SDS011;47650;49.848;9.620;2022-12-07T00:21:34;22.02;;;14.35;;
61741;SDS011;47650;49.848;9.620;2022-12-07T00:24:00;18.98;;;13.35;;
61741;SDS011;47650;49.848;9.620;2022-12-07T00:26:28;22.63;;;15.07;;
61741;SDS011;47650;49.848;9.620;2022-12-07T00:28:57;23.05;;;15.90;;
61741;SDS011;47650;49.848;9.620;2022-12-07T00:31:29;16.40;;;11.63;;
61741;SDS011;47650;49.848;9.620;2022-12-07T00:33:56;16.95;;;11.55;;
61741;SDS011;47650;49.848;9.620;2022-12-07T00:36:23;22.27;;;15.25;;
61741;SDS011;47650;49.848;9.620;2022-12-07T00:38:49;20.50;;;14.57;;
61741;SDS011;47650;49.848;9.620;2022-12-07T00:41:16;18.45;;;13.63;;
61741;SDS011;47650;49.848;9.620;2022-12-07T00:43:43;19.40;;;14.45;;
61741;SDS011;47650;49.848;9.620;2022-12-07T00:46:10;17.17;;;13.15;;
61741;SDS011;47650;49.848;9.620;2022-12-07T00:48:36;20.17;;;14.65;;
61741;SDS011;47650;49.848;9.620;2022-12-07T00:51:02;20.02;;;13.95;;
61741;SDS011;47650;49.848;9.620;2022-12-07T00:53:30;18.50;;;14.40;;
61741;SDS011;47650;49.848;9.620;2022-12-07T00:56:06;16.48;;;12.25;;
61741;SDS011;47650;49.848;9.620;2022-12-07T00:58:34;16.55;;;12.15;;
61741;SDS011;47650;49.848;9.620;2022-12-07T01:01:00;16.48;;;12.60;;
61741;SDS011;47650;49.848;9.620;2022-12-07T01:03:26;14.98;;;11.38;;
61741;SDS011;47650;49.848;9.620;2022-12-07T01:05:54;17.25;;;13.25;;
61741;SDS011;47650;49.848;9.620;2022-12-07T01:08:25;14.95;;;11.93;;
61741;SDS011;47650;49.848;9.620;2022-12-07T01:11:02;17.83;;;12.23;;
61741;SDS011;47650;49.848;9.620;2022-12-07T01:13:30;15.95;;;12.10;;
61741;SDS011;47650;49.848;9.620;2022-12-07T01:15:58;16.15;;;11.82;;
61741;SDS011;47650;49.848;9.620;2022-12-07T01:18:25;16.67;;;12.57;;
61741;SDS011;47650;49.848;9.620;2022-12-07T01:21:05;17.60;;;13.20;;
61741;SDS011;47650;49.848;9.620;2022-12-07T01:23:39;17.97;;;12.53;;
61741;SDS011;47650;49.848;9.620;2022-12-07T01:26:06;17.75;;;12.43;;
61741;SDS011;47650;49.848;9.620;2022-12-07T01:28:33;17.58;;;12.90;;
61741;SDS011;47650;49.848;9.620;2022-12-07T01:30:59;16.75;;;12.65;;
61741;SDS011;47650;49.848;9.620;2022-12-07T01:33:33;17.63;;;13.95;;
61741;SDS011;47650;49.848;9.620;2022-12-07T01:36:04;19.02;;;13.70;;
61741;SDS011;47650;49.848;9.620;2022-12-07T01:38:31;19.10;;;13.90;;
61741;SDS011;47650;49.848;9.620;2022-12-07T01:40:59;17.35;;;13.07;;
61741;SDS011;47650;49.848;9.620;2022-12-07T01:43:26;19.75;;;14.38;;
61741;SDS011;47650;49.848;9.620;2022-12-07T01:45:53;20.88;;;14.27;;
61741;SDS011;47650;49.848;9.620;2022-12-07T01:48:22;19.92;;;14.43;;
61741;SDS011;47650;49.848;9.620;2022-12-07T01:50:51;22.48;;;15.30;;
61741;SDS011;47650;49.848;9.620;2022-12-07T01:53:20;19.00;;;13.73;;
61741;SDS011;47650;49.848;9.620;2022-12-07T01:55:49;19.02;;;14.35;;
61741;SDS011;47650;49.848;9.620;2022-12-07T01:58:17;19.98;;;14.38;;
61741;SDS011;47650;49.848;9.620;2022-12-07T02:00:43;21.88;;;15.85;;
61741;SDS011;47650;49.848;9.620;2022-12-07T02:03:25;23.08;;;15.77;;
61741;SDS011;47650;49.848;9.620;2022-12-07T02:08:47;22.80;;;15.50;;
61741;SDS011;47650;49.848;9.620;2022-12-07T02:11:13;20.75;;;15.07;;
61741;SDS011;47650;49.848;9.620;2022-12-07T02:13:40;21.15;;;15.65;;
61741;SDS011;47650;49.848;9.620;2022-12-07T02:16:16;20.90;;;15.73;;
61741;SDS011;47650;49.848;9.620;2022-12-07T02:21:56;23.08;;;16.00;;
61741;SDS011;47650;49.848;9.620;2022-12-07T02:30:00;23.98;;;17.92;;
61741;SDS011;47650;49.848;9.620;2022-12-07T02:35:17;24.60;;;17.85;;
61741;SDS011;47650;49.848;9.620;2022-12-07T02:38:02;24.77;;;17.27;;
61741;SDS011;47650;49.848;9.620;2022-12-07T02:40:44;24.48;;;16.50;;
61741;SDS011;47650;49.848;9.620;2022-12-07T02:43:15;22.00;;;16.75;;
61741;SDS011;47650;49.848;9.620;2022-12-07T02:45:46;21.98;;;15.60;;
61741;SDS011;47650;49.848;9.620;2022-12-07T02:48:18;23.92;;;16.40;;
61741;SDS011;47650;49.848;9.620;2022-12-07T02:50:48;21.33;;;16.15;;
61741;SDS011;47650;49.848;9.620;2022-12-07T03:01:59;22.25;;;16.15;;
61741;SDS011;47650;49.848;9.620;2022-12-07T03:07:38;20.88;;;15.77;;
61741;SDS011;47650;49.848;9.620;2022-12-07T03:10:16;21.27;;;15.45;;
61741;SDS011;47650;49.848;9.620;2022-12-07T03:18:25;21.52;;;15.82;;
61741;SDS011;47650;49.848;9.620;2022-12-07T03:20:58;20.15;;;14.30;;
61741;SDS011;47650;49.848;9.620;2022-12-07T03:23:29;22.08;;;14.73;;
61741;SDS011;47650;49.848;9.620;2022-12-07T03:26:00;20.67;;;15.13;;
61741;SDS011;47650;49.848;9.620;2022-12-07T03:28:30;22.00;;;14.77;;
61741;SDS011;47650;49.848;9.620;2022-12-07T03:31:05;22.08;;;15.40;;
61741;SDS011;47650;49.848;9.620;2022-12-07T03:36:08;22.05;;;15.82;;
61741;SDS011;47650;49.848;9.620;2022-12-07T03:39:29;21.40;;;15.68;;
61741;SDS011;47650;49.848;9.620;2022-12-07T03:41:41;20.40;;;13.82;;
61741;SDS011;47650;49.848;9.620;2022-12-07T03:44:07;20.45;;;14.75;;
61741;SDS011;47650;49.848;9.620;2022-12-07T03:46:44;19.83;;;13.88;;
61741;SDS011;47650;49.848;9.620;2022-12-07T03:49:31;21.30;;;15.13;;
61741;SDS011;47650;49.848;9.620;2022-12-07T03:52:12;19.42;;;12.40;;
61741;SDS011;47650;49.848;9.620;2022-12-07T03:54:41;21.75;;;14.30;;
61741;SDS011;47650;49.848;9.620;2022-12-07T03:57:13;18.75;;;14.43;;
61741;SDS011;47650;49.848;9.620;2022-12-07T03:59:41;19.75;;;14.00;;
61741;SDS011;47650;49.848;9.620;2022-12-07T04:02:08;20.42;;;13.40;;
61741;SDS011;47650;49.848;9.620;2022-12-07T04:04:37;19.30;;;14.05;;
61741;SDS011;47650;49.848;9.620;2022-12-07T04:07:04;18.52;;;12.65;;
61741;SDS011;47650;49.848;9.620;2022-12-07T04:09:29;17.33;;;12.27;;
61741;SDS011;47650;49.848;9.620;2022-12-07T04:11:55;15.45;;;10.65;;
61741;SDS011;47650;49.848;9.620;2022-12-07T04:14:20;14.60;;;10.55;;
61741;SDS011;47650;49.848;9.620;2022-12-07T04:16:52;17.27;;;12.38;;
61741;SDS011;47650;49.848;9.620;2022-12-07T04:19:23;15.23;;;10.55;;
61741;SDS011;47650;49.848;9.620;2022-12-07T04:21:50;14.23;;;10.38;;
61741;SDS011;47650;49.848;9.620;2022-12-07T04:24:16;13.65;;;10.27;;
61741;SDS011;47650;49.848;9.620;2022-12-07T04:26:42;13.52;;;9.18;;
61741;SDS011;47650;49.848;9.620;2022-12-07T04:29:08;13.32;;;9.40;;
61741;SDS011;47650;49.848;9.620;2022-12-07T04:31:35;11.18;;;8.98;;
61741;SDS011;47650;49.848;9.620;2022-12-07T04:34:01;14.13;;;10.25;;
61741;SDS011;47650;49.848;9.620;2022-12-07T04:36:28;13.18;;;9.98;;
61741;SDS011;47650;49.848;9.620;2022-12-07T04:38:54;13.98;;;10.13;;
61741;SDS011;47650;49.848;9.620;2022-12-07T04:43:47;13.25;;;10.00;;
61741;SDS011;47650;49.848;9.620;2022-12-07T04:46:13;11.48;;;8.23;;
61741;SDS011;47650;49.848;9.620;2022-12-07T04:48:38;15.35;;;11.05;;
61741;SDS011;47650;49.848;9.620;2022-12-07T04:51:03;14.98;;;11.23;;
61741;SDS011;47650;49.848;9.620;2022-12-07T04:53:29;17.05;;;12.90;;
61741;SDS011;47650;49.848;9.620;2022-12-07T04:55:54;16.15;;;12.00;;
61741;SDS011;47650;49.848;9.620;2022-12-07T04:58:19;15.90;;;12.38;;
61741;SDS011;47650;49.848;9.620;2022-12-07T05:00:45;16.40;;;12.35;;
61741;SDS011;47650;49.848;9.620;2022-12-07T05:03:10;18.52;;;12.43;;
61741;SDS011;47650;49.848;9.620;2022-12-07T05:05:35;16.20;;;11.82;;
61741;SDS011;47650;49.848;9.620;2022-12-07T05:08:00;17.83;;;12.43;;
61741;SDS011;47650;49.848;9.620;2022-12-07T05:10:26;16.95;;;11.57;;
61741;SDS011;47650;49.848;9.620;2022-12-07T05:12:52;18.00;;;12.88;;
61741;SDS011;47650;49.848;9.620;2022-12-07T05:15:17;16.38;;;11.82;;
61741;SDS011;47650;49.848;9.620;2022-12-07T05:17:43;22.02;;;14.73;;
61741;SDS011;47650;49.848;9.620;2022-12-07T05:20:11;26.00;;;18.45;;
61741;SDS011;47650;49.848;9.620;2022-12-07T05:22:36;19.77;;;14.40;;
61741;SDS011;47650;49.848;9.620;2022-12-07T05:25:01;19.73;;;13.73;;
61741;SDS011;47650;49.848;9.620;2022-12-07T05:27:27;20.42;;;14.98;;
61741;SDS011;47650;49.848;9.620;2022-12-07T05:29:52;22.40;;;15.25;;
61741;SDS011;47650;49.848;9.620;2022-12-07T05:32:17;20.38;;;14.48;;
61741;SDS011;47650;49.848;9.620;2022-12-07T05:34:46;20.85;;;14.05;;
61741;SDS011;47650;49.848;9.620;2022-12-07T05:37:17;18.80;;;14.88;;
61741;SDS011;47650;49.848;9.620;2022-12-07T05:39:42;19.70;;;13.40;;
61741;SDS011;47650;49.848;9.620;2022-12-07T05:42:10;19.48;;;14.85;;
61741;SDS011;47650;49.848;9.620;2022-12-07T05:44:39;19.55;;;14.05;;
61741;SDS011;47650;49.848;9.620;2022-12-07T05:47:08;19.60;;;13.77;;
61741;SDS011;47650;49.848;9.620;2022-12-07T05:49:33;21.30;;;14.75;;
61741;SDS011;47650;49.848;9.620;2022-12-07T05:52:00;18.85;;;13.32;;
61741;SDS011;47650;49.848;9.620;2022-12-07T05:54:25;16.23;;;13.38;;
61741;SDS011;47650;49.848;9.620;2022-12-07T05:56:51;22.15;;;14.27;;
61741;SDS011;47650;49.848;9.620;2022-12-07T05:59:16;18.63;;;13.55;;
61741;SDS011;47650;49.848;9.620;2022-12-07T06:04:29;20.25;;;14.07;;
61741;SDS011;47650;49.848;9.620;2022-12-07T06:06:59;19.05;;;13.88;;
61741;SDS011;47650;49.848;9.620;2022-12-07T06:09:26;21.25;;;15.52;;
61741;SDS011;47650;49.848;9.620;2022-12-07T06:11:59;21.02;;;14.80;;
61741;SDS011;47650;49.848;9.620;2022-12-07T06:14:43;21.08;;;15.40;;
61741;SDS011;47650;49.848;9.620;2022-12-07T06:17:09;21.33;;;15.07;;
61741;SDS011;47650;49.848;9.620;2022-12-07T06:19:36;12.90;;;8.73;;
61741;SDS011;47650;49.848;9.620;2022-12-07T06:22:01;20.42;;;14.30;;
61741;SDS011;47650;49.848;9.620;2022-12-07T06:24:31;19.75;;;11.88;;
61741;SDS011;47650;49.848;9.620;2022-12-07T06:26:57;18.23;;;13.93;;
61741;SDS011;47650;49.848;9.620;2022-12-07T06:29:30;19.10;;;13.88;;
61741;SDS011;47650;49.848;9.620;2022-12-07T06:34:22;17.80;;;12.98;;
61741;SDS011;47650;49.848;9.620;2022-12-07T06:36:49;27.20;;;19.55;;
61741;SDS011;47650;49.848;9.620;2022-12-07T06:39:21;32.83;;;25.15;;
61741;SDS011;47650;49.848;9.620;2022-12-07T06:41:51;22.60;;;17.05;;
61741;SDS011;47650;49.848;9.620;2022-12-07T06:44:17;20.25;;;14.02;;
61741;SDS011;47650;49.848;9.620;2022-12-07T06:46:48;20.23;;;13.85;;
61741;SDS011;47650;49.848;9.620;2022-12-07T06:49:14;22.02;;;14.32;;
61741;SDS011;47650;49.848;9.620;2022-12-07T06:51:40;20.65;;;14.18;;
61741;SDS011;47650;49.848;9.620;2022-12-07T06:54:11;19.30;;;13.77;;
61741;SDS011;47650;49.848;9.620;2022-12-07T06:56:40;19.88;;;13.75;;
61741;SDS011;47650;49.848;9.620;2022-12-07T06:59:06;16.85;;;11.77;;
61741;SDS011;47650;49.848;9.620;2022-12-07T07:01:33;19.83;;;14.90;;
61741;SDS011;47650;49.848;9.620;2022-12-07T07:04:14;19.50;;;14.73;;
61741;SDS011;47650;49.848;9.620;2022-12-07T07:06:39;21.08;;;14.75;;
61741;SDS011;47650;49.848;9.620;2022-12-07T07:09:04;19.20;;;13.40;;
61741;SDS011;47650;49.848;9.620;2022-12-07T07:11:37;18.35;;;13.75;;
61741;SDS011;47650;49.848;9.620;2022-12-07T07:14:02;18.13;;;14.35;;
61741;SDS011;47650;49.848;9.620;2022-12-07T07:16:28;18.50;;;13.10;;
61741;SDS011;47650;49.848;9.620;2022-12-07T07:18:55;18.92;;;13.57;;
61741;SDS011;47650;49.848;9.620;2022-12-07T07:21:22;18.80;;;13.95;;
61741;SDS011;47650;49.848;9.620;2022-12-07T07:23:48;17.75;;;13.77;;
61741;SDS011;47650;49.848;9.620;2022-12-07T07:26:14;18.58;;;13.38;;
61741;SDS011;47650;49.848;9.620;2022-12-07T07:28:39;20.30;;;13.65;;
61741;SDS011;47650;49.848;9.620;2022-12-07T07:31:05;20.65;;;14.55;;
61741;SDS011;47650;49.848;9.620;2022-12-07T07:33:30;18.95;;;13.05;;
61741;SDS011;47650;49.848;9.620;2022-12-07T07:35:56;18.85;;;12.82;;
61741;SDS011;47650;49.848;9.620;2022-12-07T07:38:22;19.35;;;12.95;;
61741;SDS011;47650;49.848;9.620;2022-12-07T07:40:54;17.77;;;11.35;;
61741;SDS011;47650;49.848;9.620;2022-12-07T07:43:20;19.05;;;14.00;;
61741;SDS011;47650;49.848;9.620;2022-12-07T07:45:45;17.88;;;13.15;;
61741;SDS011;47650;49.848;9.620;2022-12-07T07:48:10;17.65;;;13.45;;
61741;SDS011;47650;49.848;9.620;2022-12-07T07:50:46;17.60;;;13.93;;
61741;SDS011;47650;49.848;9.620;2022-12-07T07:53:13;16.15;;;12.63;;
61741;SDS011;47650;49.848;9.620;2022-12-07T07:55:40;17.77;;;13.18;;
61741;SDS011;47650;49.848;9.620;2022-12-07T07:58:05;17.33;;;12.98;;
61741;SDS011;47650;49.848;9.620;2022-12-07T08:00:30;15.95;;;13.35;;
61741;SDS011;47650;49.848;9.620;2022-12-07T08:02:56;16.70;;;13.13;;
61741;SDS011;47650;49.848;9.620;2022-12-07T08:05:23;17.63;;;13.57;;
61741;SDS011;47650;49.848;9.620;2022-12-07T08:07:55;13.77;;;9.50;;
61741;SDS011;47650;49.848;9.620;2022-12-07T08:10:20;18.10;;;13.20;;
61741;SDS011;47650;49.848;9.620;2022-12-07T08:12:45;17.83;;;13.30;;
61741;SDS011;47650;49.848;9.620;2022-12-07T08:15:30;14.38;;;10.52;;
61741;SDS011;47650;49.848;9.620;2022-12-07T08:17:57;13.77;;;10.32;;
61741;SDS011;47650;49.848;9.620;2022-12-07T08:20:23;14.82;;;10.05;;
61741;SDS011;47650;49.848;9.620;2022-12-07T08:22:48;14.65;;;11.02;;
61741;SDS011;47650;49.848;9.620;2022-12-07T08:25:15;16.27;;;11.18;;
61741;SDS011;47650;49.848;9.620;2022-12-07T08:27:41;17.80;;;11.52;;
61741;SDS011;47650;49.848;9.620;2022-12-07T08:30:08;14.10;;;11.40;;
61741;SDS011;47650;49.848;9.620;2022-12-07T08:32:34;14.07;;;11.05;;
61741;SDS011;47650;49.848;9.620;2022-12-07T08:35:00;12.10;;;9.35;;
61741;SDS011;47650;49.848;9.620;2022-12-07T08:37:25;13.82;;;10.57;;
61741;SDS011;47650;49.848;9.620;2022-12-07T08:39:51;14.45;;;11.32;;
61741;SDS011;47650;49.848;9.620;2022-12-07T08:42:16;14.82;;;9.07;;
61741;SDS011;47650;49.848;9.620;2022-12-07T08:44:42;14.05;;;9.02;;
61741;SDS011;47650;49.848;9.620;2022-12-07T08:47:07;14.88;;;11.10;;
61741;SDS011;47650;49.848;9.620;2022-12-07T08:49:40;15.63;;;11.68;;
61741;SDS011;47650;49.848;9.620;2022-12-07T08:52:11;11.48;;;7.28;;
61741;SDS011;47650;49.848;9.620;2022-12-07T08:54:36;10.18;;;7.13;;
61741;SDS011;47650;49.848;9.620;2022-12-07T08:57:05;15.23;;;10.82;;
61741;SDS011;47650;49.848;9.620;2022-12-07T08:59:33;13.00;;;8.85;;
61741;SDS011;47650;49.848;9.620;2022-12-07T09:02:00;12.70;;;8.88;;
61741;SDS011;47650;49.848;9.620;2022-12-07T09:04:26;15.43;;;11.18;;
61741;SDS011;47650;49.848;9.620;2022-12-07T09:06:51;12.95;;;9.88;;
61741;SDS011;47650;49.848;9.620;2022-12-07T09:09:18;13.00;;;10.85;;
61741;SDS011;47650;49.848;9.620;2022-12-07T09:11:44;12.90;;;10.68;;
61741;SDS011;47650;49.848;9.620;2022-12-07T09:14:10;11.55;;;7.93;;
61741;SDS011;47650;49.848;9.620;2022-12-07T09:16:35;13.60;;;10.70;;
61741;SDS011;47650;49.848;9.620;2022-12-07T09:19:00;15.15;;;11.27;;
61741;SDS011;47650;49.848;9.620;2022-12-07T09:21:26;11.90;;;10.20;;
61741;SDS011;47650;49.848;9.620;2022-12-07T09:23:52;13.07;;;9.63;;
61741;SDS011;47650;49.848;9.620;2022-12-07T09:26:19;13.02;;;10.38;;
61741;SDS011;47650;49.848;9.620;2022-12-07T09:28:44;13.65;;;10.27;;
61741;SDS011;47650;49.848;9.620;2022-12-07T09:31:09;11.63;;;9.18;;
61741;SDS011;47650;49.848;9.620;2022-12-07T09:33:35;11.95;;;8.10;;
61741;SDS011;47650;49.848;9.620;2022-12-07T09:36:00;12.85;;;10.38;;
61741;SDS011;47650;49.848;9.620;2022-12-07T09:38:25;14.10;;;9.98;;
61741;SDS011;47650;49.848;9.620;2022-12-07T09:40:53;13.02;;;9.88;;
61741;SDS011;47650;49.848;9.620;2022-12-07T09:43:20;10.70;;;9.13;;
61741;SDS011;47650;49.848;9.620;2022-12-07T09:45:50;12.57;;;8.30;;
61741;SDS011;47650;49.848;9.620;2022-12-07T09:48:20;13.15;;;10.38;;
61741;SDS011;47650;49.848;9.620;2022-12-07T09:50:47;14.38;;;10.80;;
61741;SDS011;47650;49.848;9.620;2022-12-07T09:53:19;13.65;;;9.20;;
61741;SDS011;47650;49.848;9.620;2022-12-07T09:55:49;12.00;;;9.85;;
61741;SDS011;47650;49.848;9.620;2022-12-07T09:58:19;11.80;;;10.25;;
61741;SDS011;47650;49.848;9.620;2022-12-07T10:00:48;11.65;;;9.10;;
61741;SDS011;47650;49.848;9.620;2022-12-07T10:03:50;13.05;;;9.30;;
61741;SDS011;47650;49.848;9.620;2022-12-07T10:06:18;11.32;;;8.98;;
61741;SDS011;47650;49.848;9.620;2022-12-07T10:08:43;10.75;;;8.13;;
61741;SDS011;47650;49.848;9.620;2022-12-07T10:11:09;11.32;;;8.73;;
61741;SDS011;47650;49.848;9.620;2022-12-07T10:13:38;14.68;;;9.00;;
61741;SDS011;47650;49.848;9.620;2022-12-07T10:16:05;13.20;;;9.20;;
61741;SDS011;47650;49.848;9.620;2022-12-07T10:18:38;14.65;;;9.05;;
61741;SDS011;47650;49.848;9.620;2022-12-07T10:21:12;11.45;;;7.88;;
61741;SDS011;47650;49.848;9.620;2022-12-07T10:24:05;11.15;;;8.77;;
61741;SDS011;47650;49.848;9.620;2022-12-07T10:26:50;13.10;;;9.15;;
61741;SDS011;47650;49.848;9.620;2022-12-07T10:29:21;12.07;;;9.27;;
61741;SDS011;47650;49.848;9.620;2022-12-07T10:32:00;13.25;;;10.50;;
61741;SDS011;47650;49.848;9.620;2022-12-07T10:34:32;12.47;;;10.40;;
61741;SDS011;47650;49.848;9.620;2022-12-07T10:45:07;11.65;;;8.45;;
61741;SDS011;47650;49.848;9.620;2022-12-07T10:50:16;9.95;;;8.20;;
61741;SDS011;47650;49.848;9.620;2022-12-07T10:58:28;10.15;;;8.68;;
61741;SDS011;47650;49.848;9.620;2022-12-07T11:04:03;8.60;;;7.28;;
61741;SDS011;47650;49.848;9.620;2022-12-07T11:18:34;13.55;;;9.27;;
61741;SDS011;47650;49.848;9.620;2022-12-07T11:20:59;10.05;;;8.50;;
61741;SDS011;47650;49.848;9.620;2022-12-07T11:24:05;9.02;;;7.72;;
61741;SDS011;47650;49.848;9.620;2022-12-07T11:32:13;9.10;;;7.72;;
61741;SDS011;47650;49.848;9.620;2022-12-07T11:34:59;9.32;;;5.63;;
61741;SDS011;47650;49.848;9.620;2022-12-07T11:37:35;7.65;;;6.43;;
61741;SDS011;47650;49.848;9.620;2022-12-07T11:42:36;10.13;;;7.65;;
61741;SDS011;47650;49.848;9.620;2022-12-07T11:45:16;7.78;;;6.93;;
61741;SDS011;47650;49.848;9.620;2022-12-07T11:47:47;7.68;;;6.85;;
61741;SDS011;47650;49.848;9.620;2022-12-07T11:50:26;7.43;;;6.40;;
61741;SDS011;47650;49.848;9.620;2022-12-07T11:53:10;7.72;;;5.68;;
61741;SDS011;47650;49.848;9.620;2022-12-07T11:58:40;7.38;;;5.82;;
61741;SDS011;47650;49.848;9.620;2022-12-07T12:06:41;9.07;;;5.03;;
61741;SDS011;47650;49.848;9.620;2022-12-07T12:09:18;7.20;;;4.05;;
61741;SDS011;47650;49.848;9.620;2022-12-07T12:17:30;8.27;;;4.30;;
61741;SDS011;47650;49.848;9.620;2022-12-07T12:26:02;8.52;;;4.93;;
61741;SDS011;47650;49.848;9.620;2022-12-07T12:28:33;7.10;;;4.55;;
61741;SDS011;47650;49.848;9.620;2022-12-07T12:31:07;7.75;;;5.60;;
61741;SDS011;47650;49.848;9.620;2022-12-07T12:33:34;7.68;;;4.80;;
61741;SDS011;47650;49.848;9.620;2022-12-07T12:46:57;7.40;;;5.50;;
61741;SDS011;47650;49.848;9.620;2022-12-07T12:51:53;7.65;;;6.47;;
61741;SDS011;47650;49.848;9.620;2022-12-07T12:54:29;7.50;;;5.72;;
61741;SDS011;47650;49.848;9.620;2022-12-07T12:57:01;8.68;;;5.88;;
61741;SDS011;47650;49.848;9.620;2022-12-07T13:15:33;8.25;;;5.65;;
61741;SDS011;47650;49.848;9.620;2022-12-07T13:18:04;7.78;;;5.65;;
61741;SDS011;47650;49.848;9.620;2022-12-07T13:20:50;8.95;;;5.43;;
61741;SDS011;47650;49.848;9.620;2022-12-07T13:26:21;7.47;;;5.20;;
61741;SDS011;47650;49.848;9.620;2022-12-07T13:29:09;6.22;;;4.65;;
61741;SDS011;47650;49.848;9.620;2022-12-07T13:34:34;8.25;;;4.40;;
61741;SDS011;47650;49.848;9.620;2022-12-07T13:39:46;7.38;;;4.88;;
61741;SDS011;47650;49.848;9.620;2022-12-07T13:42:26;7.95;;;4.50;;
61741;SDS011;47650;49.848;9.620;2022-12-07T13:44:52;8.90;;;5.20;;
61741;SDS011;47650;49.848;9.620;2022-12-07T13:47:20;7.55;;;4.63;;
61741;SDS011;47650;49.848;9.620;2022-12-07T13:49:56;7.10;;;5.10;;
61741;SDS011;47650;49.848;9.620;2022-12-07T13:52:24;9.32;;;5.72;;
61741;SDS011;47650;49.848;9.620;2022-12-07T13:57:22;9.40;;;5.07;;
61741;SDS011;47650;49.848;9.620;2022-12-07T13:59:50;7.22;;;5.40;;
61741;SDS011;47650;49.848;9.620;2022-12-07T14:02:20;8.43;;;5.05;;
61741;SDS011;47650;49.848;9.620;2022-12-07T14:04:50;7.90;;;4.30;;
61741;SDS011;47650;49.848;9.620;2022-12-07T14:07:20;6.03;;;4.28;;
61741;SDS011;47650;49.848;9.620;2022-12-07T14:09:54;6.70;;;4.30;;
61741;SDS011;47650;49.848;9.620;2022-12-07T14:12:21;10.45;;;5.10;;
61741;SDS011;47650;49.848;9.620;2022-12-07T14:14:47;8.77;;;5.45;;
61741;SDS011;47650;49.848;9.620;2022-12-07T14:19:53;9.85;;;5.38;;
61741;SDS011;47650;49.848;9.620;2022-12-07T14:22:22;8.50;;;5.10;;
61741;SDS011;47650;49.848;9.620;2022-12-07T14:24:50;7.13;;;4.68;;
61741;SDS011;47650;49.848;9.620;2022-12-07T14:27:19;8.85;;;5.18;;
61741;SDS011;47650;49.848;9.620;2022-12-07T14:29:47;9.57;;;5.95;;
61741;SDS011;47650;49.848;9.620;2022-12-07T14:32:20;9.07;;;4.95;;
61741;SDS011;47650;49.848;9.620;2022-12-07T14:35:11;20.80;;;12.88;;
61741;SDS011;47650;49.848;9.620;2022-12-07T14:37:39;11.25;;;6.28;;
61741;SDS011;47650;49.848;9.620;2022-12-07T14:40:06;11.45;;;7.20;;
61741;SDS011;47650;49.848;9.620;2022-12-07T14:42:34;10.48;;;6.20;;
61741;SDS011;47650;49.848;9.620;2022-12-07T14:45:00;10.40;;;6.97;;
61741;SDS011;47650;49.848;9.620;2022-12-07T14:47:26;9.43;;;6.60;;
61741;SDS011;47650;49.848;9.620;2022-12-07T14:49:52;9.77;;;7.70;;
61741;SDS011;47650;49.848;9.620;2022-12-07T14:52:20;8.75;;;5.90;;
61741;SDS011;47650;49.848;9.620;2022-12-07T14:54:52;10.70;;;6.85;;
61741;SDS011;47650;49.848;9.620;2022-12-07T14:57:19;13.85;;;7.80;;
61741;SDS011;47650;49.848;9.620;2022-12-07T14:59:45;11.85;;;7.97;;
61741;SDS011;47650;49.848;9.620;2022-12-07T15:02:11;10.68;;;6.97;;
61741;SDS011;47650;49.848;9.620;2022-12-07T15:04:39;10.95;;;7.25;;
61741;SDS011;47650;49.848;9.620;2022-12-07T15:07:05;10.27;;;6.43;;
61741;SDS011;47650;49.848;9.620;2022-12-07T15:09:34;10.60;;;7.97;;
61741;SDS011;47650;49.848;9.620;2022-12-07T15:11:59;10.63;;;8.05;;
61741;SDS011;47650;49.848;9.620;2022-12-07T15:14:25;9.70;;;7.72;;
61741;SDS011;47650;49.848;9.620;2022-12-07T15:16:50;10.18;;;6.35;;
61741;SDS011;47650;49.848;9.620;2022-12-07T15:19:22;11.80;;;7.80;;
61741;SDS011;47650;49.848;9.620;2022-12-07T15:21:50;13.02;;;7.85;;
61741;SDS011;47650;49.848;9.620;2022-12-07T15:24:17;11.65;;;7.25;;
61741;SDS011;47650;49.848;9.620;2022-12-07T15:26:43;8.32;;;5.85;;
61741;SDS011;47650;49.848;9.620;2022-12-07T15:29:08;9.95;;;7.10;;
61741;SDS011;47650;49.848;9.620;2022-12-07T15:31:35;7.60;;;4.72;;
61741;SDS011;47650;49.848;9.620;2022-12-07T15:34:01;6.60;;;2.40;;
61741;SDS011;47650;49.848;9.620;2022-12-07T15:36:30;8.15;;;2.78;;
61741;SDS011;47650;49.848;9.620;2022-12-07T15:38:57;2.70;;;1.80;;
61741;SDS011;47650;49.848;9.620;2022-12-07T15:41:24;9.73;;;3.40;;
61741;SDS011;47650;49.848;9.620;2022-12-07T15:43:50;21.33;;;9.05;;
61741;SDS011;47650;49.848;9.620;2022-12-07T15:49:38;12.27;;;4.82;;
61741;SDS011;47650;49.848;9.620;2022-12-07T15:51:56;11.88;;;5.80;;
61741;SDS011;47650;49.848;9.620;2022-12-07T15:54:25;12.27;;;6.38;;
61741;SDS011;47650;49.848;9.620;2022-12-07T15:56:52;16.13;;;7.07;;
61741;SDS011;47650;49.848;9.620;2022-12-07T15:59:19;19.20;;;8.75;;
61741;SDS011;47650;49.848;9.620;2022-12-07T16:01:44;14.70;;;8.32;;
61741;SDS011;47650;49.848;9.620;2022-12-07T16:04:09;18.17;;;9.27;;
61741;SDS011;47650;49.848;9.620;2022-12-07T16:06:35;18.75;;;10.25;;
61741;SDS011;47650;49.848;9.620;2022-12-07T16:09:00;25.35;;;11.98;;
61741;SDS011;47650;49.848;9.620;2022-12-07T16:11:26;28.02;;;16.38;;
61741;SDS011;47650;49.848;9.620;2022-12-07T16:13:52;25.67;;;14.35;;
61741;SDS011;47650;49.848;9.620;2022-12-07T16:16:19;22.85;;;15.05;;
61741;SDS011;47650;49.848;9.620;2022-12-07T16:18:47;33.13;;;19.70;;
61741;SDS011;47650;49.848;9.620;2022-12-07T16:21:13;34.08;;;20.92;;
61741;SDS011;47650;49.848;9.620;2022-12-07T16:23:39;28.67;;;15.23;;
61741;SDS011;47650;49.848;9.620;2022-12-07T16:26:08;21.50;;;14.32;;
61741;SDS011;47650;49.848;9.620;2022-12-07T16:28:38;19.98;;;13.32;;
61741;SDS011;47650;49.848;9.620;2022-12-07T16:31:05;26.40;;;17.33;;
61741;SDS011;47650;49.848;9.620;2022-12-07T16:33:35;31.63;;;19.92;;
61741;SDS011;47650;49.848;9.620;2022-12-07T16:36:01;24.20;;;15.50;;
61741;SDS011;47650;49.848;9.620;2022-12-07T16:38:31;23.40;;;13.18;;
61741;SDS011;47650;49.848;9.620;2022-12-07T16:40:57;21.45;;;12.95;;
61741;SDS011;47650;49.848;9.620;2022-12-07T16:43:22;20.27;;;12.35;;
61741;SDS011;47650;49.848;9.620;2022-12-07T16:45:48;20.45;;;12.68;;
61741;SDS011;47650;49.848;9.620;2022-12-07T16:48:20;27.33;;;21.33;;
61741;SDS011;47650;49.848;9.620;2022-12-07T16:50:46;20.23;;;12.63;;
61741;SDS011;47650;49.848;9.620;2022-12-07T16:53:12;21.38;;;12.60;;
61741;SDS011;47650;49.848;9.620;2022-12-07T16:55:41;24.40;;;14.60;;
61741;SDS011;47650;49.848;9.620;2022-12-07T16:58:08;22.45;;;13.20;;
61741;SDS011;47650;49.848;9.620;2022-12-07T17:00:34;24.05;;;13.75;;
61741;SDS011;47650;49.848;9.620;2022-12-07T17:02:59;31.33;;;18.23;;
61741;SDS011;47650;49.848;9.620;2022-12-07T17:05:25;36.45;;;19.85;;
61741;SDS011;47650;49.848;9.620;2022-12-07T17:07:55;35.40;;;21.05;;